createdAt,value
2018-07-15T00:00:58.664Z,25.04
2018-07-15T00:03:26.775Z,25.05
2018-07-15T00:05:54.851Z,24.83
2018-07-15T00:08:23.099Z,24.89
2018-07-15T00:10:51.269Z,24.70
2018-07-15T00:13:19.363Z,24.80
2018-07-15T00:15:47.561Z,24.76
2018-07-15T00:18:16.600Z,24.66
2018-07-15T00:20:44.647Z,24.86
2018-07-15T00:23:12.723Z,24.85
2018-07-15T00:25:40.824Z,24.81
2018-07-15T00:28:08.942Z,24.73
2018-07-15T00:30:37.242Z,24.43
2018-07-15T00:33:06.047Z,24.42
2018-07-15T00:35:34.147Z,24.52
2018-07-15T00:38:02.247Z,24.60
2018-07-15T00:40:30.335Z,24.51
2018-07-15T00:42:58.439Z,24.29
2018-07-15T00:45:26.576Z,24.24
2018-07-15T00:47:55.153Z,24.39
2018-07-15T00:50:23.368Z,24.53
2018-07-15T00:52:51.578Z,24.15
2018-07-15T00:55:19.667Z,24.46
2018-07-15T00:57:47.742Z,24.27
2018-07-15T01:00:21.532Z,24.43
2018-07-15T01:02:49.654Z,24.32
2018-07-15T01:05:17.743Z,24.12
2018-07-15T01:07:46.873Z,24.10
2018-07-15T01:10:14.951Z,23.45
2018-07-15T01:12:43.038Z,23.66
2018-07-15T01:15:11.124Z,23.88
2018-07-15T01:17:39.226Z,23.95
2018-07-15T01:20:08.742Z,23.77
2018-07-15T01:22:37.218Z,23.74
2018-07-15T01:25:05.432Z,23.87
2018-07-15T01:27:33.462Z,23.60
2018-07-15T01:30:01.545Z,23.78
2018-07-15T01:32:29.729Z,23.39
2018-07-15T01:34:57.883Z,23.53
2018-07-15T01:37:25.981Z,23.61
2018-07-15T01:39:54.071Z,23.30
2018-07-15T01:42:22.128Z,23.51
2018-07-15T01:44:50.199Z,23.49
2018-07-15T01:47:18.267Z,23.47
2018-07-15T01:49:47.034Z,23.63
2018-07-15T01:52:15.166Z,23.26
2018-07-15T01:54:43.242Z,23.39
2018-07-15T01:57:11.370Z,23.33
2018-07-15T01:59:39.483Z,23.12
2018-07-15T02:02:07.613Z,23.40
2018-07-15T02:04:36.086Z,23.38
2018-07-15T02:07:04.220Z,23.30
2018-07-15T02:09:32.316Z,23.33
2018-07-15T02:12:00.375Z,23.15
2018-07-15T02:14:28.459Z,23.39
2018-07-15T02:16:56.512Z,23.31
2018-07-15T02:19:24.598Z,23.38
2018-07-15T02:21:52.880Z,23.34
2018-07-15T02:24:21.019Z,23.37
2018-07-15T02:26:49.147Z,23.32
2018-07-15T02:29:17.543Z,23.37
2018-07-15T02:31:45.619Z,23.25
2018-07-15T02:34:13.718Z,22.90
2018-07-15T02:36:41.864Z,22.86
2018-07-15T02:39:11.166Z,22.70
2018-07-15T02:41:39.335Z,22.82
2018-07-15T02:44:07.611Z,22.82
2018-07-15T02:46:36.398Z,22.84
2018-07-15T02:49:04.487Z,22.75
2018-07-15T02:51:39.311Z,23.07
2018-07-15T02:54:07.700Z,22.92
2018-07-15T02:56:35.804Z,22.84
2018-07-15T02:59:03.952Z,22.77
2018-07-15T03:01:32.108Z,22.84
2018-07-15T03:04:00.175Z,22.75
2018-07-15T03:06:28.357Z,22.53
2018-07-15T03:08:56.452Z,22.79
2018-07-15T03:11:24.543Z,22.94
2018-07-15T03:13:52.723Z,23.05
2018-07-15T03:16:20.811Z,22.63
2018-07-15T03:18:48.887Z,22.74
2018-07-15T03:21:17.692Z,22.38
2018-07-15T03:23:45.762Z,22.47
2018-07-15T03:26:13.849Z,22.42
2018-07-15T03:28:42.051Z,22.44
2018-07-15T03:31:11.241Z,22.46
2018-07-15T03:33:39.468Z,22.61
2018-07-15T03:36:07.599Z,22.57
2018-07-15T03:38:35.701Z,22.57
2018-07-15T03:41:03.752Z,22.59
2018-07-15T03:43:31.814Z,22.43
2018-07-15T03:45:59.899Z,22.15
2018-07-15T03:48:28.042Z,22.20
2018-07-15T03:50:56.161Z,22.11
2018-07-15T03:53:24.410Z,21.93
2018-07-15T03:55:52.477Z,22.14
2018-07-15T03:58:20.646Z,22.31
2018-07-15T04:00:48.740Z,22.18
2018-07-15T04:03:17.769Z,22.11
2018-07-15T04:05:45.831Z,22.25
2018-07-15T04:08:14.039Z,22.41
2018-07-15T04:10:42.159Z,22.32
2018-07-15T04:13:10.400Z,22.30
2018-07-15T04:15:38.489Z,22.11
2018-07-15T04:18:07.252Z,22.29
2018-07-15T04:20:36.767Z,22.18
2018-07-15T04:23:06.162Z,21.90
2018-07-15T04:25:35.149Z,22.23
2018-07-15T04:28:04.099Z,22.44
2018-07-15T04:30:32.238Z,22.34
2018-07-15T04:33:00.321Z,22.40
2018-07-15T04:35:28.878Z,22.47
2018-07-15T04:37:56.984Z,21.75
2018-07-15T04:40:25.092Z,21.70
2018-07-15T04:42:53.222Z,21.77
2018-07-15T04:45:21.350Z,21.93
2018-07-15T04:50:39.753Z,21.82
2018-07-15T04:53:07.832Z,21.99
2018-07-15T04:55:35.970Z,21.92
2018-07-15T04:58:04.418Z,22.10
2018-07-15T05:00:33.013Z,22.08
2018-07-15T05:03:01.096Z,22.16
2018-07-15T05:05:29.213Z,22.16
2018-07-15T05:07:57.365Z,22.10
2018-07-15T05:10:25.557Z,22.11
2018-07-15T05:12:53.648Z,22.01
2018-07-15T05:15:22.015Z,22.10
2018-07-15T05:17:50.118Z,22.03
2018-07-15T05:20:18.286Z,22.13
2018-07-15T05:22:46.484Z,21.98
2018-07-15T05:25:15.027Z,22.13
2018-07-15T05:27:43.126Z,22.32
2018-07-15T05:30:11.278Z,22.11
2018-07-15T05:32:39.391Z,22.16
2018-07-15T05:35:07.937Z,22.19
2018-07-15T05:37:36.123Z,21.79
2018-07-15T05:40:04.349Z,22.15
2018-07-15T05:42:32.447Z,22.08
2018-07-15T05:45:00.541Z,22.28
2018-07-15T05:47:28.618Z,22.20
2018-07-15T05:49:56.693Z,22.22
2018-07-15T05:52:24.779Z,22.39
2018-07-15T05:54:52.906Z,22.49
2018-07-15T05:57:21.018Z,22.77
2018-07-15T05:59:49.735Z,22.89
2018-07-15T06:02:18.671Z,22.65
2018-07-15T06:04:46.957Z,22.68
2018-07-15T06:07:15.100Z,22.83
2018-07-15T06:09:43.316Z,22.84
2018-07-15T06:12:11.423Z,22.88
2018-07-15T06:14:40.012Z,22.80
2018-07-15T06:17:08.275Z,22.92
2018-07-15T06:19:36.379Z,23.05
2018-07-15T06:22:04.798Z,22.92
2018-07-15T06:24:32.913Z,23.10
2018-07-15T06:27:01.027Z,23.18
2018-07-15T06:29:29.214Z,23.07
2018-07-15T06:31:57.415Z,23.21
2018-07-15T06:34:25.704Z,23.16
2018-07-15T06:36:53.962Z,22.96
2018-07-15T06:39:22.102Z,22.93
2018-07-15T06:41:50.346Z,23.01
2018-07-15T06:44:19.496Z,23.22
2018-07-15T06:46:47.680Z,23.21
2018-07-15T06:49:15.867Z,23.41
2018-07-15T06:51:43.929Z,23.18
2018-07-15T06:54:12.006Z,23.26
2018-07-15T06:56:40.131Z,23.37
2018-07-15T06:59:08.258Z,23.26
2018-07-15T07:01:36.432Z,23.29
2018-07-15T07:04:04.580Z,23.35
2018-07-15T07:06:32.704Z,23.41
2018-07-15T07:09:00.860Z,23.58
2018-07-15T07:11:28.992Z,23.64
2018-07-15T07:13:57.066Z,23.79
2018-07-15T07:16:26.256Z,23.80
2018-07-15T07:18:54.713Z,23.99
2018-07-15T07:21:22.809Z,24.07
2018-07-15T07:23:51.084Z,23.97
2018-07-15T07:26:20.117Z,23.96
2018-07-15T07:28:49.020Z,24.18
2018-07-15T07:31:17.233Z,24.07
2018-07-15T07:33:45.463Z,24.15
2018-07-15T07:36:13.698Z,24.28
2018-07-15T07:38:41.901Z,24.30
2018-07-15T07:41:09.973Z,24.34
2018-07-15T07:43:38.254Z,24.43
2018-07-15T07:46:06.325Z,24.44
2018-07-15T07:48:34.603Z,24.59
2018-07-15T07:51:02.730Z,24.60
2018-07-15T07:53:30.959Z,24.74
2018-07-15T07:55:59.123Z,24.69
2018-07-15T07:58:27.259Z,24.85
2018-07-15T08:00:55.583Z,24.86
2018-07-15T08:03:23.807Z,24.91
2018-07-15T08:05:51.908Z,24.94
2018-07-15T08:08:20.029Z,25.05
2018-07-15T08:10:48.174Z,25.16
2018-07-15T08:13:16.294Z,25.22
2018-07-15T08:15:44.355Z,25.32
2018-07-15T08:18:12.529Z,25.26
2018-07-15T08:20:40.627Z,25.43
2018-07-15T08:23:08.790Z,25.39
2018-07-15T08:25:36.865Z,25.45
2018-07-15T08:28:04.941Z,25.45
2018-07-15T08:30:44.578Z,25.62
2018-07-15T08:33:12.693Z,25.69
2018-07-15T08:35:40.762Z,25.72
2018-07-15T08:38:08.920Z,25.71
2018-07-15T08:40:37.061Z,25.81
2018-07-15T08:43:05.273Z,25.85
2018-07-15T08:45:33.427Z,25.83
2018-07-15T08:48:01.638Z,25.80
2018-07-15T08:50:29.724Z,25.87
2018-07-15T08:52:57.837Z,26.10
2018-07-15T08:55:25.963Z,26.23
2018-07-15T08:57:54.346Z,26.23
2018-07-15T09:00:22.410Z,26.36
2018-07-15T09:02:50.632Z,26.34
2018-07-15T09:05:19.515Z,26.43
2018-07-15T09:07:47.672Z,26.33
2018-07-15T09:10:15.858Z,26.38
2018-07-15T09:12:44.190Z,26.22
2018-07-15T09:15:12.264Z,26.40
2018-07-15T09:17:40.399Z,26.57
2018-07-15T09:20:08.507Z,26.69
2018-07-15T09:22:36.630Z,26.73
2018-07-15T09:25:04.747Z,26.87
2018-07-15T09:27:33.003Z,27.02
2018-07-15T09:30:01.219Z,27.07
2018-07-15T09:32:29.503Z,27.16
2018-07-15T09:34:57.703Z,27.14
2018-07-15T09:37:25.827Z,27.29
2018-07-15T09:39:53.972Z,27.06
2018-07-15T09:42:22.102Z,27.24
2018-07-15T09:44:50.302Z,27.11
2018-07-15T09:47:18.419Z,27.15
2018-07-15T09:49:46.786Z,27.53
2018-07-15T09:52:14.929Z,27.75
2018-07-15T09:54:43.031Z,27.76
2018-07-15T09:57:11.238Z,27.66
2018-07-15T09:59:39.485Z,27.86
2018-07-15T10:02:08.492Z,28.01
2018-07-15T10:04:36.636Z,28.52
2018-07-15T10:07:05.086Z,28.53
2018-07-15T10:09:33.208Z,28.72
2018-07-15T10:12:01.529Z,28.81
2018-07-15T10:14:29.952Z,29.10
2018-07-15T10:16:58.019Z,29.19
2018-07-15T10:19:26.280Z,29.38
2018-07-15T10:21:54.443Z,29.44
2018-07-15T10:24:22.635Z,29.44
2018-07-15T10:26:50.763Z,29.59
2018-07-15T10:29:20.125Z,29.37
2018-07-15T10:31:48.422Z,29.29
2018-07-15T10:34:16.596Z,29.45
2018-07-15T10:36:44.709Z,29.47
2018-07-15T10:39:13.307Z,29.28
2018-07-15T10:41:41.492Z,29.08
2018-07-15T10:44:09.644Z,29.55
2018-07-15T10:46:38.244Z,29.76
2018-07-15T10:49:06.326Z,29.68
2018-07-15T10:51:34.401Z,29.88
2018-07-15T10:54:02.480Z,29.95
2018-07-15T10:56:30.613Z,30.07
2018-07-15T10:58:58.736Z,30.23
2018-07-15T11:01:26.883Z,30.54
2018-07-15T11:03:54.991Z,30.78
2018-07-15T11:06:23.156Z,30.31
2018-07-15T11:08:51.219Z,30.30
2018-07-15T11:11:20.055Z,30.17
2018-07-15T11:13:48.265Z,29.87
2018-07-15T11:16:16.351Z,30.06
2018-07-15T11:18:44.487Z,29.65
2018-07-15T11:21:12.853Z,29.44
2018-07-15T11:23:41.022Z,29.30
2018-07-15T11:26:09.178Z,29.71
2018-07-15T11:28:37.262Z,29.68
2018-07-15T11:31:05.574Z,29.86
2018-07-15T11:33:33.544Z,29.83
2018-07-15T11:36:01.623Z,29.78
2018-07-15T11:38:36.811Z,30.22
2018-07-15T11:41:05.218Z,30.45
2018-07-15T11:43:33.355Z,30.26
2018-07-15T11:46:01.620Z,31.21
2018-07-15T11:48:29.885Z,31.39
2018-07-15T11:50:58.057Z,31.10
2018-07-15T11:53:26.147Z,31.66
2018-07-15T11:55:54.786Z,32.14
2018-07-15T11:58:22.879Z,31.91
2018-07-15T12:00:51.014Z,32.24
2018-07-15T12:03:20.249Z,32.53
2018-07-15T12:05:48.712Z,33.00
2018-07-15T12:08:16.822Z,32.44
2018-07-15T12:10:45.479Z,32.61
2018-07-15T12:13:18.114Z,31.77
2018-07-15T12:15:47.507Z,34.76
2018-07-15T12:18:16.784Z,34.70
2018-07-15T12:20:45.669Z,34.31
2018-07-15T12:23:14.672Z,34.65
2018-07-15T12:25:43.978Z,35.47
2018-07-15T12:28:13.266Z,36.23
2018-07-15T12:30:42.361Z,36.08
2018-07-15T12:33:20.976Z,36.18
2018-07-15T12:35:58.856Z,36.34
2018-07-15T12:38:28.575Z,37.28
2018-07-15T12:40:58.017Z,37.62
2018-07-15T12:43:27.303Z,37.60
2018-07-15T12:45:57.060Z,38.60
2018-07-15T12:48:25.324Z,37.26
2018-07-15T12:50:53.676Z,35.80
2018-07-15T12:53:22.024Z,34.79
2018-07-15T12:55:50.704Z,33.87
2018-07-15T12:58:19.039Z,33.59
2018-07-15T13:00:47.519Z,36.38
2018-07-15T13:03:16.250Z,38.25
2018-07-15T13:05:44.725Z,39.25
2018-07-15T13:08:13.008Z,39.23
2018-07-15T13:10:41.417Z,37.31
2018-07-15T13:13:10.765Z,35.52
2018-07-15T13:15:39.372Z,34.75
2018-07-15T13:18:07.649Z,34.46
2018-07-15T13:20:36.166Z,34.66
2018-07-15T13:23:04.777Z,34.76
2018-07-15T13:25:33.389Z,35.08
2018-07-15T13:28:01.702Z,35.73
2018-07-15T13:30:29.944Z,35.68
2018-07-15T13:32:58.215Z,34.72
2018-07-15T13:35:26.498Z,34.64
2018-07-15T13:37:54.676Z,34.70
2018-07-15T13:40:22.829Z,36.70
2018-07-15T13:42:51.021Z,38.36
2018-07-15T13:45:19.101Z,39.07
2018-07-15T13:47:47.457Z,40.08
2018-07-15T13:50:15.775Z,40.55
2018-07-15T13:52:44.622Z,38.78
2018-07-15T13:55:12.786Z,39.14
2018-07-15T13:57:41.177Z,40.29
2018-07-15T14:00:10.907Z,40.37
2018-07-15T14:02:40.263Z,39.93
2018-07-15T14:05:08.527Z,39.47
2018-07-15T14:07:36.714Z,40.28
2018-07-15T14:10:04.955Z,40.13
2018-07-15T14:12:33.187Z,38.66
2018-07-15T14:15:01.413Z,37.43
2018-07-15T14:17:29.853Z,37.44
2018-07-15T14:19:58.129Z,36.38
2018-07-15T14:22:26.501Z,35.92
2018-07-15T14:24:54.846Z,35.18
2018-07-15T14:27:22.979Z,35.50
2018-07-15T14:29:51.333Z,35.21
2018-07-15T14:32:23.594Z,35.22
2018-07-15T14:34:51.924Z,35.09
2018-07-15T14:37:20.908Z,35.32
2018-07-15T14:39:49.178Z,34.16
2018-07-15T14:42:17.291Z,34.24
2018-07-15T14:44:45.446Z,34.05
2018-07-15T14:47:13.653Z,34.23
2018-07-15T14:49:41.778Z,34.03
2018-07-15T14:52:10.109Z,34.07
2018-07-15T14:54:38.242Z,33.00
2018-07-15T14:57:06.456Z,32.87
2018-07-15T14:59:34.518Z,33.04
2018-07-15T15:02:02.624Z,33.05
2018-07-15T15:04:30.837Z,32.75
2018-07-15T15:06:58.992Z,31.84
2018-07-15T15:09:27.247Z,31.88
2018-07-15T15:11:55.319Z,32.11
2018-07-15T15:14:23.377Z,31.72
2018-07-15T15:16:51.483Z,31.12
2018-07-15T15:19:19.639Z,30.76
2018-07-15T15:21:47.795Z,30.17
2018-07-15T15:24:15.887Z,29.64
2018-07-15T15:26:44.180Z,29.04
2018-07-15T15:29:12.329Z,28.29
2018-07-15T15:31:40.422Z,28.08
2018-07-15T15:34:09.351Z,27.86
2018-07-15T15:36:37.517Z,28.44
2018-07-15T15:39:06.233Z,28.44
2018-07-15T15:41:34.386Z,28.40
2018-07-15T15:44:02.550Z,28.97
2018-07-15T15:46:30.691Z,27.83
2018-07-15T15:48:58.813Z,28.33
2018-07-15T15:51:26.957Z,28.51
2018-07-15T15:53:55.180Z,28.44
2018-07-15T15:56:23.342Z,27.65
2018-07-15T15:58:51.482Z,27.44
2018-07-15T16:01:19.594Z,27.62
2018-07-15T16:03:47.654Z,27.87
2018-07-15T16:06:15.807Z,28.52
2018-07-15T16:08:43.878Z,28.01
2018-07-15T16:11:12.101Z,28.17
2018-07-15T16:13:40.220Z,28.09
2018-07-15T16:16:08.393Z,27.87
2018-07-15T16:18:36.426Z,28.18
2018-07-15T16:21:04.502Z,28.22
2018-07-15T16:23:32.659Z,27.83
2018-07-15T16:26:00.934Z,27.92
2018-07-15T16:28:29.167Z,27.81
2018-07-15T16:30:57.814Z,27.96
2018-07-15T16:33:25.883Z,27.62
2018-07-15T16:35:53.958Z,27.66
2018-07-15T16:38:22.035Z,27.20
2018-07-15T16:40:51.187Z,27.08
2018-07-15T16:43:19.238Z,26.74
2018-07-15T16:45:47.322Z,26.03
2018-07-15T16:48:15.370Z,26.51
2018-07-15T16:50:43.456Z,26.87
2018-07-15T16:53:11.518Z,25.93
2018-07-15T16:55:39.924Z,24.96
2018-07-15T16:58:08.014Z,24.57
2018-07-15T17:00:36.110Z,24.20
2018-07-15T17:03:04.255Z,24.48
2018-07-15T17:05:32.308Z,24.67
2018-07-15T17:08:00.430Z,24.83
2018-07-15T17:10:28.547Z,24.55
2018-07-15T17:12:56.768Z,24.59
2018-07-15T17:15:25.054Z,25.20
2018-07-15T17:17:53.153Z,25.65
2018-07-15T17:20:21.369Z,24.99
2018-07-15T17:22:49.425Z,25.14
2018-07-15T17:25:17.750Z,25.32
2018-07-15T17:27:45.860Z,24.84
2018-07-15T17:30:13.918Z,24.58
2018-07-15T17:32:42.069Z,24.66
2018-07-15T17:35:10.156Z,24.56
2018-07-15T17:37:38.423Z,24.38
2018-07-15T17:40:06.745Z,24.49
2018-07-15T17:42:34.857Z,24.66
2018-07-15T17:45:03.022Z,24.43
2018-07-15T17:47:31.130Z,24.68
2018-07-15T17:49:59.388Z,24.37
2018-07-15T17:52:27.474Z,24.24
2018-07-15T17:54:55.608Z,24.30
2018-07-15T17:57:23.885Z,24.12
2018-07-15T17:59:52.034Z,24.22
2018-07-15T18:02:20.252Z,24.22
2018-07-15T18:04:48.467Z,23.98
2018-07-15T18:07:16.482Z,23.68
2018-07-15T18:09:45.146Z,23.70
2018-07-15T18:12:13.298Z,24.23
2018-07-15T18:14:41.443Z,23.99
2018-07-15T18:17:09.758Z,24.25
2018-07-15T18:19:37.897Z,24.13
2018-07-15T18:22:06.026Z,24.76
2018-07-15T18:24:34.398Z,24.65
2018-07-15T18:27:02.590Z,24.60
2018-07-15T18:29:31.052Z,24.72
2018-07-15T18:31:59.405Z,25.01
2018-07-15T18:34:27.679Z,24.88
2018-07-15T18:36:56.342Z,24.76
2018-07-15T18:39:24.455Z,24.22
2018-07-15T18:41:52.690Z,24.25
2018-07-15T18:44:21.810Z,24.21
2018-07-15T18:46:50.190Z,24.35
2018-07-15T18:49:18.352Z,24.40
2018-07-15T18:51:46.521Z,24.12
2018-07-15T18:54:14.817Z,24.63
2018-07-15T18:56:42.945Z,24.59
2018-07-15T18:59:11.210Z,24.49
2018-07-15T19:01:39.239Z,24.32
2018-07-15T19:04:07.529Z,24.58
2018-07-15T19:06:35.625Z,24.15
2018-07-15T19:09:04.466Z,24.14
2018-07-15T19:11:32.589Z,24.55
2018-07-15T19:14:00.966Z,24.83
2018-07-15T19:16:29.159Z,24.98
2018-07-15T19:18:57.233Z,24.93
2018-07-15T19:21:25.490Z,25.13
2018-07-15T19:23:53.675Z,25.07
2018-07-15T19:26:21.869Z,25.16
2018-07-15T19:28:49.959Z,24.91
2018-07-15T19:31:18.019Z,24.62
2018-07-15T19:33:46.188Z,24.45
2018-07-15T19:36:14.294Z,24.30
2018-07-15T19:38:42.367Z,24.09
2018-07-15T19:41:10.439Z,24.80
2018-07-15T19:43:38.605Z,24.84
2018-07-15T19:46:06.674Z,24.99
2018-07-15T19:48:34.755Z,24.96
2018-07-15T19:51:02.868Z,24.80
2018-07-15T19:56:25.094Z,24.85
2018-07-15T19:58:53.284Z,24.70
2018-07-15T20:01:22.091Z,24.53
2018-07-15T20:03:50.089Z,24.03
2018-07-15T20:06:18.206Z,24.07
2018-07-15T20:08:46.298Z,24.28
2018-07-15T20:11:14.506Z,24.30
2018-07-15T20:13:42.636Z,24.05
2018-07-15T20:16:10.895Z,24.03
2018-07-15T20:18:39.447Z,24.25
2018-07-15T20:21:07.519Z,24.06
2018-07-15T20:23:35.669Z,23.94
2018-07-15T20:26:03.747Z,24.39
2018-07-15T20:28:31.893Z,24.23
2018-07-15T20:31:00.014Z,24.25
2018-07-15T20:33:28.130Z,24.30
2018-07-15T20:35:56.267Z,23.58
2018-07-15T20:38:24.387Z,23.77
2018-07-15T20:40:54.519Z,23.84
2018-07-15T20:43:22.591Z,23.88
2018-07-15T20:45:50.658Z,24.10
2018-07-15T20:48:19.537Z,23.55
2018-07-15T20:50:47.646Z,23.42
2018-07-15T20:53:15.732Z,23.60
2018-07-15T20:55:44.164Z,23.74
2018-07-15T20:58:12.476Z,23.95
2018-07-15T21:00:40.611Z,23.89
2018-07-15T21:03:08.771Z,23.39
2018-07-15T21:05:37.208Z,23.81
2018-07-15T21:08:06.556Z,23.68
2018-07-15T21:10:34.862Z,23.61
2018-07-15T21:13:03.458Z,23.45
2018-07-15T21:15:31.592Z,23.72
2018-07-15T21:18:00.076Z,23.63
2018-07-15T21:20:28.470Z,23.47
2018-07-15T21:22:56.828Z,23.63
2018-07-15T21:25:25.014Z,23.86
2018-07-15T21:27:53.134Z,23.95
2018-07-15T21:30:22.308Z,23.83
2018-07-15T21:32:50.401Z,23.25
2018-07-15T21:35:18.539Z,23.30
2018-07-15T21:37:46.694Z,23.83
2018-07-15T21:40:15.009Z,24.03
2018-07-15T21:42:43.213Z,23.74
2018-07-15T21:45:11.457Z,23.32
2018-07-15T21:47:39.625Z,23.40
2018-07-15T21:50:07.942Z,23.08
2018-07-15T21:52:36.263Z,22.91
2018-07-15T21:55:04.350Z,23.38
2018-07-15T21:57:32.542Z,23.31
2018-07-15T22:00:00.679Z,23.34
2018-07-15T22:02:28.851Z,23.49
2018-07-15T22:04:57.664Z,23.65
2018-07-15T22:07:37.290Z,23.20
2018-07-15T22:10:18.819Z,23.28
2018-07-15T22:12:47.120Z,23.15
2018-07-15T22:15:15.447Z,23.23
2018-07-15T22:17:43.519Z,23.35
2018-07-15T22:20:11.664Z,23.33
2018-07-15T22:22:39.821Z,23.23
2018-07-15T22:25:07.929Z,23.06
2018-07-15T22:27:36.218Z,23.42
2018-07-15T22:30:04.292Z,23.33
2018-07-15T22:32:32.486Z,23.28
2018-07-15T22:35:00.715Z,23.18
2018-07-15T22:37:28.801Z,23.21
2018-07-15T22:39:56.915Z,23.25
2018-07-15T22:42:25.366Z,23.16
2018-07-15T22:44:53.412Z,23.10
2018-07-15T22:47:21.678Z,23.13
2018-07-15T22:49:49.822Z,23.14
2018-07-15T22:52:17.910Z,23.31
2018-07-15T22:54:46.038Z,22.83
2018-07-15T22:57:14.216Z,23.01
2018-07-15T22:59:42.284Z,22.88
2018-07-15T23:02:10.407Z,22.88
2018-07-15T23:05:55.249Z,22.61
2018-07-15T23:08:24.219Z,22.88
2018-07-15T23:10:52.908Z,22.81
2018-07-15T23:13:21.197Z,22.88
2018-07-15T23:15:49.883Z,22.86
2018-07-15T23:18:17.966Z,22.53
2018-07-15T23:20:46.820Z,22.78
2018-07-15T23:23:15.315Z,22.78
2018-07-15T23:25:43.372Z,22.61
2018-07-15T23:28:12.590Z,22.67
2018-07-15T23:30:42.379Z,22.50
2018-07-15T23:33:11.006Z,22.57
2018-07-15T23:35:39.086Z,22.61
2018-07-15T23:38:07.208Z,22.62
2018-07-15T23:40:35.326Z,22.61
2018-07-15T23:43:03.712Z,22.91
2018-07-15T23:45:32.975Z,22.74
2018-07-15T23:48:01.162Z,22.64
2018-07-15T23:50:29.346Z,22.94
2018-07-15T23:52:57.474Z,22.76
2018-07-15T23:55:25.883Z,22.55
2018-07-15T23:57:54.367Z,22.50
